createdAt,value
2024-01-18T00:02:24.083Z,-0.37
2024-01-18T00:07:26.862Z,1.10
2024-01-18T00:12:30.054Z,4.79
2024-01-18T00:17:33.218Z,5.47
2024-01-18T00:22:35.980Z,3.06
2024-01-18T00:27:38.919Z,1.59
2024-01-18T00:32:41.868Z,0.83
2024-01-18T00:37:44.745Z,3.49
2024-01-18T00:42:47.773Z,5.89
2024-01-18T00:47:50.698Z,3.94
2024-01-18T00:52:53.534Z,2.10
2024-01-18T00:57:56.544Z,1.04
2024-01-18T01:02:59.306Z,0.36
2024-01-18T01:08:02.738Z,0.31
2024-01-18T01:13:05.647Z,3.85
2024-01-18T01:18:08.677Z,6.27
2024-01-18T01:23:11.503Z,4.98
2024-01-18T01:28:14.379Z,2.82
2024-01-18T01:33:17.357Z,1.66
2024-01-18T01:38:20.360Z,0.89
2024-01-18T01:43:24.423Z,0.33
2024-01-18T01:48:27.583Z,1.22
2024-01-18T01:53:30.634Z,5.08
2024-01-18T01:58:34.369Z,5.77
2024-01-18T02:03:38.123Z,3.45
2024-01-18T02:08:41.090Z,2.05
2024-01-18T02:13:43.904Z,1.18
2024-01-18T02:18:47.712Z,0.56
2024-01-18T02:23:58.902Z,0.14
2024-01-18T02:29:01.839Z,-0.20
2024-01-18T02:34:15.407Z,0.99
2024-01-18T02:39:18.515Z,5.05
2024-01-18T02:44:21.700Z,5.79
2024-01-18T02:49:24.692Z,3.55
2024-01-18T02:54:27.568Z,2.30
2024-01-18T02:59:30.349Z,1.52
2024-01-18T03:04:33.147Z,0.91
2024-01-18T03:09:36.026Z,0.47
2024-01-18T03:14:38.872Z,1.44
2024-01-18T03:19:41.733Z,5.24
2024-01-18T03:24:44.508Z,5.98
2024-01-18T03:29:47.239Z,3.77
2024-01-18T03:34:50.685Z,2.49
2024-01-18T03:39:53.451Z,1.67
2024-01-18T03:44:56.260Z,1.03
2024-01-18T03:49:59.292Z,0.54
2024-01-18T03:55:02.104Z,0.17
2024-01-18T04:00:06.450Z,1.18
2024-01-18T04:05:09.708Z,5.37
2024-01-18T04:10:12.532Z,6.40
2024-01-18T04:15:15.447Z,3.96
2024-01-18T04:20:23.144Z,2.56
2024-01-18T04:25:26.155Z,1.67
2024-01-18T04:30:29.931Z,1.00
2024-01-18T04:35:32.900Z,1.94
2024-01-18T04:40:35.956Z,5.59
2024-01-18T04:45:38.934Z,6.52
2024-01-18T04:50:41.866Z,4.06
2024-01-18T04:55:45.208Z,2.53
2024-01-18T05:00:48.274Z,1.58
2024-01-18T05:05:51.500Z,0.87
2024-01-18T05:10:56.138Z,1.43
2024-01-18T05:16:00.751Z,5.11
2024-01-18T05:21:03.852Z,6.25
2024-01-18T05:26:06.809Z,3.88
2024-01-18T05:31:09.587Z,2.26
2024-01-18T05:36:12.742Z,1.35
2024-01-18T05:41:15.608Z,3.60
2024-01-18T05:46:20.737Z,6.51
2024-01-18T05:51:24.975Z,6.42
2024-01-18T05:56:27.886Z,3.95
2024-01-18T06:01:30.698Z,2.45
2024-01-18T06:06:33.767Z,1.47
2024-01-18T06:11:36.951Z,0.84
2024-01-18T06:16:39.759Z,3.28
2024-01-18T06:21:42.599Z,6.35
2024-01-18T06:26:45.524Z,6.43
2024-01-18T06:31:48.323Z,3.73
2024-01-18T06:36:52.774Z,2.02
2024-01-18T06:41:55.990Z,2.39
2024-01-18T06:46:59.277Z,5.47
2024-01-18T06:52:03.584Z,5.74
2024-01-18T06:57:06.672Z,3.15
2024-01-18T07:02:09.558Z,1.63
2024-01-18T07:07:12.477Z,1.61
2024-01-18T07:12:15.376Z,4.88
2024-01-18T07:17:18.179Z,5.69
2024-01-18T07:22:21.059Z,3.16
2024-01-18T07:27:24.221Z,1.58
2024-01-18T07:32:27.124Z,1.78
2024-01-18T07:37:30.043Z,5.18
2024-01-18T07:42:33.370Z,5.65
2024-01-18T07:47:37.047Z,3.21
2024-01-18T07:52:40.071Z,1.80
2024-01-18T07:57:42.963Z,1.02
2024-01-18T08:02:45.852Z,0.47
2024-01-18T08:07:48.717Z,1.49
2024-01-18T08:12:52.965Z,5.25
2024-01-18T08:17:56.025Z,4.81
2024-01-18T08:22:58.993Z,2.78
2024-01-18T08:28:01.984Z,1.68
2024-01-18T08:33:05.039Z,1.07
2024-01-18T08:38:08.056Z,3.58
2024-01-18T08:43:12.079Z,6.22
2024-01-18T08:48:16.192Z,5.19
2024-01-18T08:53:19.061Z,3.03
2024-01-18T08:58:21.856Z,1.88
2024-01-18T09:03:24.906Z,3.61
2024-01-18T09:08:28.005Z,6.12
2024-01-18T09:13:30.813Z,4.35
2024-01-18T09:18:33.788Z,2.69
2024-01-18T09:23:37.445Z,3.81
2024-01-18T09:28:40.317Z,6.79
2024-01-18T09:33:43.106Z,5.98
2024-01-18T09:38:49.172Z,4.06
2024-01-18T09:43:57.640Z,2.96
2024-01-18T09:49:04.345Z,2.25
2024-01-18T09:54:08.537Z,1.80
2024-01-18T09:59:16.786Z,3.64
2024-01-18T10:04:21.026Z,6.48
2024-01-18T10:09:24.150Z,5.03
2024-01-18T10:14:43.878Z,3.80
2024-01-18T10:19:46.885Z,3.14
2024-01-18T10:24:51.435Z,2.64
2024-01-18T10:29:56.440Z,3.41
2024-01-18T10:35:01.190Z,6.85
2024-01-18T10:40:06.651Z,7.17
2024-01-18T10:45:09.823Z,5.11
2024-01-18T10:50:13.127Z,3.99
2024-01-18T10:55:16.008Z,3.29
2024-01-18T11:00:20.886Z,3.25
2024-01-18T11:05:25.016Z,6.67
2024-01-18T11:10:28.306Z,7.46
2024-01-18T11:15:32.418Z,5.46
2024-01-18T11:20:37.684Z,4.36
2024-01-18T11:25:41.013Z,3.71
2024-01-18T11:30:48.788Z,5.48
2024-01-18T11:35:52.070Z,7.35
2024-01-18T11:41:20.012Z,5.47
2024-01-18T11:46:38.759Z,4.29
2024-01-18T11:51:42.482Z,3.61
2024-01-18T11:56:49.022Z,3.29
2024-01-18T12:01:51.973Z,5.48
2024-01-18T12:06:57.424Z,8.50
2024-01-18T12:12:02.075Z,7.53
2024-01-18T12:17:13.002Z,5.64
2024-01-18T12:22:20.672Z,4.58
2024-01-18T12:27:24.797Z,3.81
2024-01-18T12:32:31.616Z,3.30
2024-01-18T12:37:34.526Z,2.97
2024-01-18T12:42:37.678Z,5.45
2024-01-18T12:47:41.062Z,7.42
2024-01-18T12:52:44.263Z,5.43
2024-01-18T12:57:47.878Z,4.21
2024-01-18T13:02:53.628Z,3.47
2024-01-18T13:07:57.207Z,3.33
2024-01-18T13:13:00.577Z,6.51
2024-01-18T13:18:05.887Z,7.66
2024-01-18T13:23:10.919Z,5.47
2024-01-18T13:28:13.959Z,4.10
2024-01-18T13:33:16.933Z,3.35
2024-01-18T13:38:20.365Z,5.79
2024-01-18T13:43:23.263Z,7.28
2024-01-18T13:48:29.530Z,5.30
2024-01-18T13:53:34.646Z,4.05
2024-01-18T13:58:38.248Z,3.30
2024-01-18T14:03:47.163Z,3.02
2024-01-18T14:08:50.364Z,6.23
2024-01-18T14:13:53.455Z,7.34
2024-01-18T14:18:56.363Z,5.19
2024-01-18T14:23:59.282Z,3.87
2024-01-18T14:29:03.424Z,3.05
2024-01-18T14:34:06.577Z,2.48
2024-01-18T14:39:09.553Z,2.01
2024-01-18T14:44:12.659Z,1.63
2024-01-18T14:49:20.149Z,1.29
2024-01-18T14:54:23.176Z,2.51
2024-01-18T14:59:26.122Z,6.34
2024-01-18T15:04:29.178Z,6.60
2024-01-18T15:09:33.060Z,4.38
2024-01-18T15:14:38.295Z,3.18
2024-01-18T15:19:41.183Z,2.36
2024-01-18T15:24:44.341Z,1.78
2024-01-18T15:29:47.365Z,1.35
2024-01-18T15:34:50.370Z,1.00
2024-01-18T15:39:53.466Z,0.71
2024-01-18T15:44:56.313Z,1.84
2024-01-18T15:49:59.237Z,5.66
2024-01-18T15:55:02.668Z,6.05
2024-01-18T16:00:07.917Z,3.73
2024-01-18T16:05:10.995Z,2.43
2024-01-18T16:10:13.998Z,1.56
2024-01-18T16:15:16.956Z,0.95
2024-01-18T16:20:19.885Z,0.53
2024-01-18T16:25:22.674Z,0.25
2024-01-18T16:30:30.140Z,1.52
2024-01-18T16:35:34.164Z,5.47
2024-01-18T16:40:37.427Z,6.09
2024-01-18T16:45:40.727Z,3.80
2024-01-18T16:50:44.083Z,2.43
2024-01-18T16:55:46.909Z,1.59
2024-01-18T17:00:50.450Z,1.19
2024-01-18T17:05:53.614Z,4.17
2024-01-18T17:10:56.796Z,5.70
2024-01-18T17:15:59.585Z,3.55
2024-01-18T17:21:02.690Z,2.23
2024-01-18T17:26:05.565Z,1.35
2024-01-18T17:31:09.462Z,2.38
2024-01-18T17:36:14.238Z,5.64
2024-01-18T17:41:18.534Z,5.38
2024-01-18T17:46:21.321Z,3.17
2024-01-18T17:51:24.161Z,1.86
2024-01-18T17:56:27.035Z,0.96
2024-01-18T18:01:29.890Z,0.26
2024-01-18T18:06:33.052Z,0.75
2024-01-18T18:11:35.960Z,4.25
2024-01-18T18:16:38.826Z,5.80
2024-01-18T18:21:41.671Z,3.79
2024-01-18T18:26:44.713Z,1.80
2024-01-18T18:31:47.564Z,0.66
2024-01-18T18:36:51.220Z,-0.14
2024-01-18T18:41:54.842Z,0.66
2024-01-18T18:46:57.617Z,4.26
2024-01-18T18:52:00.396Z,4.77
2024-01-18T18:57:03.287Z,2.35
2024-01-18T19:02:06.616Z,0.87
2024-01-18T19:07:09.426Z,-0.05
2024-01-18T19:12:12.227Z,-0.74
2024-01-18T19:17:16.399Z,1.22
2024-01-18T19:22:19.232Z,4.37
2024-01-18T19:27:22.021Z,4.64
2024-01-18T19:32:25.675Z,2.20
2024-01-18T19:37:28.897Z,0.70
2024-01-18T19:42:31.750Z,-0.22
2024-01-18T19:47:34.762Z,-0.95
2024-01-18T19:52:40.355Z,-1.48
2024-01-18T19:57:45.371Z,-0.51
2024-01-18T20:02:48.357Z,3.27
2024-01-18T20:07:51.364Z,3.90
2024-01-18T20:12:54.400Z,1.35
2024-01-18T20:17:57.580Z,-0.09
2024-01-18T20:23:01.740Z,-0.57
2024-01-18T20:28:05.211Z,2.64
2024-01-18T20:33:08.268Z,4.29
2024-01-18T20:38:11.888Z,1.90
2024-01-18T20:43:14.787Z,0.67
2024-01-18T20:48:17.810Z,3.47
2024-01-18T20:53:20.742Z,5.16
2024-01-18T20:58:23.518Z,2.77
2024-01-18T21:03:26.775Z,0.89
2024-01-18T21:08:29.722Z,2.44
2024-01-18T21:13:33.386Z,4.47
2024-01-18T21:18:36.813Z,2.48
2024-01-18T21:23:39.596Z,0.54
2024-01-18T21:28:42.455Z,1.67
2024-01-18T21:33:46.396Z,2.72
2024-01-18T21:38:49.215Z,0.50
2024-01-18T21:43:52.051Z,-0.05
2024-01-18T21:48:55.023Z,2.97
2024-01-18T21:53:58.022Z,3.07
2024-01-18T21:59:01.082Z,0.78
2024-01-18T22:04:05.228Z,-0.17
2024-01-18T22:09:08.201Z,2.48
2024-01-18T22:14:11.079Z,2.73
2024-01-18T22:19:28.945Z,0.44
2024-01-18T22:24:38.510Z,1.57
2024-01-18T22:29:44.198Z,4.23
2024-01-18T22:34:48.695Z,2.79
2024-01-18T22:39:52.829Z,0.65
2024-01-18T22:44:55.611Z,-0.52
2024-01-18T22:49:58.575Z,-1.33
2024-01-18T22:55:01.611Z,-1.63
2024-01-18T23:00:06.976Z,1.46
2024-01-18T23:05:09.836Z,3.84
2024-01-18T23:10:12.688Z,3.71
2024-01-18T23:15:15.457Z,0.99
2024-01-18T23:20:18.307Z,-0.69
2024-01-18T23:25:21.854Z,-1.64
2024-01-18T23:30:24.630Z,0.65
2024-01-18T23:35:27.401Z,3.51
2024-01-18T23:40:30.176Z,2.70
2024-01-18T23:45:32.960Z,0.29
2024-01-18T23:50:35.774Z,-1.20
2024-01-18T23:55:38.584Z,-2.18
